sensor_id;sensor_type;location;lat;lon;timestamp;P1;durP1;ratioP1;P2;durP2;ratioP2
27666;SDS011;15074;50.940;5.282;2022-08-01T00:01:44;1.58;;;1.38;;
27666;SDS011;15074;50.940;5.282;2022-08-01T00:04:10;1.70;;;1.25;;
27666;SDS011;15074;50.940;5.282;2022-08-01T00:06:36;1.42;;;1.30;;
27666;SDS011;15074;50.940;5.282;2022-08-01T00:09:01;3.00;;;1.38;;
27666;SDS011;15074;50.940;5.282;2022-08-01T00:11:27;1.90;;;1.10;;
27666;SDS011;15074;50.940;5.282;2022-08-01T00:13:52;2.15;;;1.08;;
27666;SDS011;15074;50.940;5.282;2022-08-01T00:16:18;1.75;;;1.10;;
27666;SDS011;15074;50.940;5.282;2022-08-01T00:18:47;1.27;;;1.00;;
27666;SDS011;15074;50.940;5.282;2022-08-01T00:21:14;1.58;;;1.13;;
27666;SDS011;15074;50.940;5.282;2022-08-01T00:23:39;3.17;;;1.10;;
27666;SDS011;15074;50.940;5.282;2022-08-01T00:26:05;1.77;;;1.05;;
27666;SDS011;15074;50.940;5.282;2022-08-01T00:28:30;1.65;;;1.00;;
27666;SDS011;15074;50.940;5.282;2022-08-01T00:30:56;1.83;;;1.10;;
27666;SDS011;15074;50.940;5.282;2022-08-01T00:33:22;2.85;;;1.15;;
27666;SDS011;15074;50.940;5.282;2022-08-01T00:35:47;1.65;;;1.20;;
27666;SDS011;15074;50.940;5.282;2022-08-01T00:38:13;2.22;;;1.10;;
27666;SDS011;15074;50.940;5.282;2022-08-01T00:40:38;2.05;;;1.25;;
27666;SDS011;15074;50.940;5.282;2022-08-01T00:43:04;2.63;;;1.25;;
27666;SDS011;15074;50.940;5.282;2022-08-01T00:45:30;2.42;;;1.30;;
27666;SDS011;15074;50.940;5.282;2022-08-01T00:47:55;1.52;;;1.05;;
27666;SDS011;15074;50.940;5.282;2022-08-01T00:50:21;2.22;;;1.08;;
27666;SDS011;15074;50.940;5.282;2022-08-01T00:52:47;1.13;;;1.00;;
27666;SDS011;15074;50.940;5.282;2022-08-01T00:55:14;2.72;;;1.10;;
27666;SDS011;15074;50.940;5.282;2022-08-01T00:57:41;2.15;;;1.38;;
27666;SDS011;15074;50.940;5.282;2022-08-01T01:00:07;1.40;;;1.15;;
27666;SDS011;15074;50.940;5.282;2022-08-01T01:02:33;2.30;;;1.00;;
27666;SDS011;15074;50.940;5.282;2022-08-01T01:05:00;2.47;;;1.10;;
27666;SDS011;15074;50.940;5.282;2022-08-01T01:07:35;2.42;;;1.20;;
27666;SDS011;15074;50.940;5.282;2022-08-01T01:10:20;3.60;;;1.13;;
27666;SDS011;15074;50.940;5.282;2022-08-01T01:13:01;1.95;;;1.13;;
27666;SDS011;15074;50.940;5.282;2022-08-01T01:15:51;2.53;;;1.20;;
27666;SDS011;15074;50.940;5.282;2022-08-01T01:26:43;2.72;;;1.27;;
27666;SDS011;15074;50.940;5.282;2022-08-01T01:34:28;1.52;;;1.23;;
27666;SDS011;15074;50.940;5.282;2022-08-01T01:36:56;1.63;;;1.27;;
27666;SDS011;15074;50.940;5.282;2022-08-01T01:41:51;2.50;;;1.83;;
27666;SDS011;15074;50.940;5.282;2022-08-01T01:44:19;3.03;;;1.30;;
27666;SDS011;15074;50.940;5.282;2022-08-01T01:46:44;2.97;;;1.20;;
27666;SDS011;15074;50.940;5.282;2022-08-01T01:49:12;2.35;;;1.40;;
27666;SDS011;15074;50.940;5.282;2022-08-01T01:51:38;4.38;;;1.45;;
27666;SDS011;15074;50.940;5.282;2022-08-01T01:54:06;1.90;;;1.40;;
27666;SDS011;15074;50.940;5.282;2022-08-01T01:56:34;2.08;;;1.38;;
27666;SDS011;15074;50.940;5.282;2022-08-01T01:59:13;1.65;;;1.20;;
27666;SDS011;15074;50.940;5.282;2022-08-01T02:01:41;2.30;;;1.45;;
27666;SDS011;15074;50.940;5.282;2022-08-01T02:04:07;2.53;;;1.40;;
27666;SDS011;15074;50.940;5.282;2022-08-01T02:06:34;3.85;;;1.70;;
27666;SDS011;15074;50.940;5.282;2022-08-01T02:09:01;1.80;;;1.30;;
27666;SDS011;15074;50.940;5.282;2022-08-01T02:11:27;3.00;;;1.50;;
27666;SDS011;15074;50.940;5.282;2022-08-01T02:13:55;2.13;;;1.40;;
27666;SDS011;15074;50.940;5.282;2022-08-01T02:16:25;2.80;;;1.60;;
27666;SDS011;15074;50.940;5.282;2022-08-01T02:18:53;2.63;;;1.75;;
27666;SDS011;15074;50.940;5.282;2022-08-01T02:21:20;3.20;;;1.70;;
27666;SDS011;15074;50.940;5.282;2022-08-01T02:23:51;5.35;;;1.65;;
27666;SDS011;15074;50.940;5.282;2022-08-01T02:26:18;4.43;;;1.90;;
27666;SDS011;15074;50.940;5.282;2022-08-01T02:28:47;2.95;;;1.90;;
27666;SDS011;15074;50.940;5.282;2022-08-01T02:31:18;2.10;;;1.60;;
27666;SDS011;15074;50.940;5.282;2022-08-01T02:33:49;2.88;;;1.73;;
27666;SDS011;15074;50.940;5.282;2022-08-01T02:36:30;2.45;;;1.73;;
27666;SDS011;15074;50.940;5.282;2022-08-01T02:38:59;2.35;;;1.90;;
27666;SDS011;15074;50.940;5.282;2022-08-01T02:41:28;2.88;;;1.95;;
27666;SDS011;15074;50.940;5.282;2022-08-01T02:43:57;9.15;;;2.08;;
27666;SDS011;15074;50.940;5.282;2022-08-01T02:46:27;3.35;;;1.90;;
27666;SDS011;15074;50.940;5.282;2022-08-01T02:49:00;3.53;;;2.13;;
27666;SDS011;15074;50.940;5.282;2022-08-01T02:51:28;3.58;;;2.50;;
27666;SDS011;15074;50.940;5.282;2022-08-01T02:53:56;3.50;;;2.00;;
27666;SDS011;15074;50.940;5.282;2022-08-01T02:56:23;3.75;;;2.22;;
27666;SDS011;15074;50.940;5.282;2022-08-01T02:58:59;3.00;;;2.00;;
27666;SDS011;15074;50.940;5.282;2022-08-01T03:01:27;3.80;;;2.58;;
27666;SDS011;15074;50.940;5.282;2022-08-01T03:03:53;2.88;;;1.75;;
27666;SDS011;15074;50.940;5.282;2022-08-01T03:06:19;4.55;;;2.58;;
27666;SDS011;15074;50.940;5.282;2022-08-01T03:08:45;3.35;;;2.25;;
27666;SDS011;15074;50.940;5.282;2022-08-01T03:11:13;3.47;;;2.10;;
27666;SDS011;15074;50.940;5.282;2022-08-01T03:13:40;3.92;;;2.30;;
27666;SDS011;15074;50.940;5.282;2022-08-01T03:16:08;4.57;;;2.58;;
27666;SDS011;15074;50.940;5.282;2022-08-01T03:21:02;3.10;;;2.33;;
27666;SDS011;15074;50.940;5.282;2022-08-01T03:23:29;3.63;;;2.50;;
27666;SDS011;15074;50.940;5.282;2022-08-01T03:25:57;3.13;;;2.58;;
27666;SDS011;15074;50.940;5.282;2022-08-01T03:28:25;4.22;;;2.47;;
27666;SDS011;15074;50.940;5.282;2022-08-01T03:30:52;4.45;;;2.30;;
27666;SDS011;15074;50.940;5.282;2022-08-01T03:33:18;3.33;;;2.53;;
27666;SDS011;15074;50.940;5.282;2022-08-01T03:35:46;3.92;;;2.95;;
27666;SDS011;15074;50.940;5.282;2022-08-01T03:38:15;3.22;;;2.78;;
27666;SDS011;15074;50.940;5.282;2022-08-01T03:40:45;3.20;;;2.90;;
27666;SDS011;15074;50.940;5.282;2022-08-01T03:43:15;4.55;;;3.33;;
27666;SDS011;15074;50.940;5.282;2022-08-01T03:45:49;4.20;;;3.33;;
27666;SDS011;15074;50.940;5.282;2022-08-01T03:48:16;4.70;;;3.15;;
27666;SDS011;15074;50.940;5.282;2022-08-01T03:50:45;8.77;;;3.60;;
27666;SDS011;15074;50.940;5.282;2022-08-01T03:53:13;4.50;;;3.63;;
27666;SDS011;15074;50.940;5.282;2022-08-01T03:55:41;5.25;;;3.50;;
27666;SDS011;15074;50.940;5.282;2022-08-01T03:58:09;4.25;;;2.97;;
27666;SDS011;15074;50.940;5.282;2022-08-01T04:00:37;4.50;;;3.25;;
27666;SDS011;15074;50.940;5.282;2022-08-01T04:03:04;5.65;;;3.50;;
27666;SDS011;15074;50.940;5.282;2022-08-01T04:07:58;4.57;;;3.47;;
27666;SDS011;15074;50.940;5.282;2022-08-01T04:10:24;4.70;;;4.07;;
27666;SDS011;15074;50.940;5.282;2022-08-01T04:12:51;6.35;;;4.05;;
27666;SDS011;15074;50.940;5.282;2022-08-01T04:15:17;7.55;;;4.45;;
27666;SDS011;15074;50.940;5.282;2022-08-01T04:17:45;5.10;;;3.38;;
27666;SDS011;15074;50.940;5.282;2022-08-01T04:20:10;4.55;;;3.92;;
27666;SDS011;15074;50.940;5.282;2022-08-01T04:22:36;5.90;;;3.55;;
27666;SDS011;15074;50.940;5.282;2022-08-01T04:25:03;5.22;;;4.20;;
27666;SDS011;15074;50.940;5.282;2022-08-01T04:27:36;4.13;;;3.72;;
27666;SDS011;15074;50.940;5.282;2022-08-01T04:30:04;5.15;;;3.92;;
27666;SDS011;15074;50.940;5.282;2022-08-01T04:32:32;6.15;;;4.65;;
27666;SDS011;15074;50.940;5.282;2022-08-01T04:35:00;5.57;;;3.97;;
27666;SDS011;15074;50.940;5.282;2022-08-01T04:37:29;5.53;;;3.90;;
27666;SDS011;15074;50.940;5.282;2022-08-01T04:39:56;5.80;;;4.43;;
27666;SDS011;15074;50.940;5.282;2022-08-01T04:42:24;5.35;;;3.95;;
27666;SDS011;15074;50.940;5.282;2022-08-01T04:44:50;5.30;;;3.95;;
27666;SDS011;15074;50.940;5.282;2022-08-01T04:47:16;7.55;;;4.88;;
27666;SDS011;15074;50.940;5.282;2022-08-01T04:49:42;8.40;;;4.97;;
27666;SDS011;15074;50.940;5.282;2022-08-01T04:52:10;6.65;;;4.88;;
27666;SDS011;15074;50.940;5.282;2022-08-01T04:54:36;7.07;;;5.40;;
27666;SDS011;15074;50.940;5.282;2022-08-01T04:57:02;6.40;;;5.55;;
27666;SDS011;15074;50.940;5.282;2022-08-01T04:59:29;7.25;;;5.45;;
27666;SDS011;15074;50.940;5.282;2022-08-01T05:02:17;7.45;;;4.65;;
27666;SDS011;15074;50.940;5.282;2022-08-01T05:04:44;6.55;;;5.05;;
27666;SDS011;15074;50.940;5.282;2022-08-01T05:07:11;9.50;;;5.82;;
27666;SDS011;15074;50.940;5.282;2022-08-01T05:09:38;8.13;;;6.33;;
27666;SDS011;15074;50.940;5.282;2022-08-01T05:12:06;7.78;;;7.07;;
27666;SDS011;15074;50.940;5.282;2022-08-01T05:14:33;9.77;;;7.72;;
27666;SDS011;15074;50.940;5.282;2022-08-01T05:17:00;9.02;;;8.13;;
27666;SDS011;15074;50.940;5.282;2022-08-01T05:19:32;15.10;;;9.70;;
27666;SDS011;15074;50.940;5.282;2022-08-01T05:22:03;11.75;;;10.55;;
27666;SDS011;15074;50.940;5.282;2022-08-01T05:24:33;11.38;;;10.20;;
27666;SDS011;15074;50.940;5.282;2022-08-01T05:27:00;11.65;;;10.50;;
27666;SDS011;15074;50.940;5.282;2022-08-01T05:29:26;12.57;;;10.90;;
27666;SDS011;15074;50.940;5.282;2022-08-01T05:31:52;12.13;;;10.13;;
27666;SDS011;15074;50.940;5.282;2022-08-01T05:34:19;11.25;;;10.13;;
27666;SDS011;15074;50.940;5.282;2022-08-01T05:36:45;12.13;;;10.80;;
27666;SDS011;15074;50.940;5.282;2022-08-01T05:39:11;11.68;;;10.48;;
27666;SDS011;15074;50.940;5.282;2022-08-01T05:41:37;10.80;;;9.75;;
27666;SDS011;15074;50.940;5.282;2022-08-01T05:44:03;10.98;;;9.98;;
27666;SDS011;15074;50.940;5.282;2022-08-01T05:46:29;12.10;;;11.07;;
27666;SDS011;15074;50.940;5.282;2022-08-01T05:48:58;11.90;;;10.70;;
27666;SDS011;15074;50.940;5.282;2022-08-01T05:51:25;12.85;;;11.65;;
27666;SDS011;15074;50.940;5.282;2022-08-01T05:53:51;11.75;;;10.65;;
27666;SDS011;15074;50.940;5.282;2022-08-01T05:56:17;10.75;;;9.75;;
27666;SDS011;15074;50.940;5.282;2022-08-01T05:58:43;10.27;;;9.05;;
27666;SDS011;15074;50.940;5.282;2022-08-01T06:01:08;9.38;;;8.43;;
27666;SDS011;15074;50.940;5.282;2022-08-01T06:03:35;9.65;;;8.75;;
27666;SDS011;15074;50.940;5.282;2022-08-01T06:06:01;9.77;;;8.88;;
27666;SDS011;15074;50.940;5.282;2022-08-01T06:08:27;10.45;;;9.45;;
27666;SDS011;15074;50.940;5.282;2022-08-01T06:10:52;11.50;;;10.43;;
27666;SDS011;15074;50.940;5.282;2022-08-01T06:13:18;11.38;;;10.35;;
27666;SDS011;15074;50.940;5.282;2022-08-01T06:15:44;12.18;;;10.85;;
27666;SDS011;15074;50.940;5.282;2022-08-01T06:18:10;12.15;;;11.02;;
27666;SDS011;15074;50.940;5.282;2022-08-01T06:20:36;12.55;;;11.23;;
27666;SDS011;15074;50.940;5.282;2022-08-01T06:23:02;12.63;;;11.43;;
27666;SDS011;15074;50.940;5.282;2022-08-01T06:25:27;13.32;;;12.00;;
27666;SDS011;15074;50.940;5.282;2022-08-01T06:27:53;13.07;;;10.80;;
27666;SDS011;15074;50.940;5.282;2022-08-01T06:30:19;12.02;;;10.82;;
27666;SDS011;15074;50.940;5.282;2022-08-01T06:32:45;11.90;;;10.57;;
27666;SDS011;15074;50.940;5.282;2022-08-01T06:35:10;11.77;;;10.68;;
27666;SDS011;15074;50.940;5.282;2022-08-01T06:37:36;11.85;;;10.68;;
27666;SDS011;15074;50.940;5.282;2022-08-01T06:40:06;10.60;;;9.50;;
27666;SDS011;15074;50.940;5.282;2022-08-01T06:42:33;10.85;;;9.80;;
27666;SDS011;15074;50.940;5.282;2022-08-01T06:47:28;10.43;;;9.45;;
27666;SDS011;15074;50.940;5.282;2022-08-01T06:49:54;10.02;;;9.02;;
27666;SDS011;15074;50.940;5.282;2022-08-01T06:52:20;9.50;;;8.60;;
27666;SDS011;15074;50.940;5.282;2022-08-01T06:54:45;9.95;;;8.95;;
27666;SDS011;15074;50.940;5.282;2022-08-01T06:57:11;8.88;;;7.80;;
27666;SDS011;15074;50.940;5.282;2022-08-01T06:59:37;9.70;;;8.30;;
27666;SDS011;15074;50.940;5.282;2022-08-01T07:02:02;9.55;;;8.63;;
27666;SDS011;15074;50.940;5.282;2022-08-01T07:04:28;7.93;;;7.20;;
27666;SDS011;15074;50.940;5.282;2022-08-01T07:06:54;8.20;;;7.40;;
27666;SDS011;15074;50.940;5.282;2022-08-01T07:09:20;7.90;;;7.15;;
27666;SDS011;15074;50.940;5.282;2022-08-01T07:11:46;7.70;;;6.93;;
27666;SDS011;15074;50.940;5.282;2022-08-01T07:14:11;9.05;;;6.22;;
27666;SDS011;15074;50.940;5.282;2022-08-01T07:16:37;7.45;;;6.75;;
27666;SDS011;15074;50.940;5.282;2022-08-01T07:19:02;6.80;;;6.10;;
27666;SDS011;15074;50.940;5.282;2022-08-01T07:21:28;5.55;;;5.05;;
27666;SDS011;15074;50.940;5.282;2022-08-01T07:23:54;6.57;;;5.40;;
27666;SDS011;15074;50.940;5.282;2022-08-01T07:26:20;6.57;;;5.10;;
27666;SDS011;15074;50.940;5.282;2022-08-01T07:28:45;4.57;;;4.13;;
27666;SDS011;15074;50.940;5.282;2022-08-01T07:31:11;4.18;;;2.67;;
27666;SDS011;15074;50.940;5.282;2022-08-01T07:33:36;4.88;;;3.38;;
27666;SDS011;15074;50.940;5.282;2022-08-01T07:36:02;4.00;;;3.33;;
27666;SDS011;15074;50.940;5.282;2022-08-01T07:38:28;7.25;;;3.58;;
27666;SDS011;15074;50.940;5.282;2022-08-01T07:40:54;3.80;;;3.35;;
27666;SDS011;15074;50.940;5.282;2022-08-01T07:43:20;5.18;;;4.00;;
27666;SDS011;15074;50.940;5.282;2022-08-01T07:45:45;3.90;;;3.50;;
27666;SDS011;15074;50.940;5.282;2022-08-01T07:48:11;5.28;;;4.18;;
27666;SDS011;15074;50.940;5.282;2022-08-01T07:50:36;4.93;;;4.43;;
27666;SDS011;15074;50.940;5.282;2022-08-01T07:53:02;5.10;;;4.50;;
27666;SDS011;15074;50.940;5.282;2022-08-01T07:55:28;4.93;;;4.43;;
27666;SDS011;15074;50.940;5.282;2022-08-01T07:57:54;4.70;;;4.30;;
27666;SDS011;15074;50.940;5.282;2022-08-01T08:00:20;5.28;;;4.78;;
27666;SDS011;15074;50.940;5.282;2022-08-01T08:02:45;4.30;;;3.90;;
27666;SDS011;15074;50.940;5.282;2022-08-01T08:05:11;5.50;;;4.40;;
27666;SDS011;15074;50.940;5.282;2022-08-01T08:07:37;5.10;;;4.60;;
27666;SDS011;15074;50.940;5.282;2022-08-01T08:10:04;4.18;;;3.72;;
27666;SDS011;15074;50.940;5.282;2022-08-01T08:12:30;3.57;;;3.23;;
27666;SDS011;15074;50.940;5.282;2022-08-01T08:14:56;4.35;;;3.55;;
27666;SDS011;15074;50.940;5.282;2022-08-01T08:17:26;3.33;;;2.63;;
27666;SDS011;15074;50.940;5.282;2022-08-01T08:19:53;2.25;;;2.05;;
27666;SDS011;15074;50.940;5.282;2022-08-01T08:22:18;2.97;;;2.20;;
27666;SDS011;15074;50.940;5.282;2022-08-01T08:24:44;2.38;;;2.10;;
27666;SDS011;15074;50.940;5.282;2022-08-01T08:27:10;2.63;;;2.10;;
27666;SDS011;15074;50.940;5.282;2022-08-01T08:29:36;3.30;;;2.75;;
27666;SDS011;15074;50.940;5.282;2022-08-01T08:32:02;2.90;;;2.55;;
27666;SDS011;15074;50.940;5.282;2022-08-01T08:34:28;2.50;;;2.30;;
27666;SDS011;15074;50.940;5.282;2022-08-01T08:36:55;3.00;;;2.70;;
27666;SDS011;15074;50.940;5.282;2022-08-01T08:39:21;3.78;;;2.53;;
27666;SDS011;15074;50.940;5.282;2022-08-01T08:41:47;3.22;;;2.42;;
27666;SDS011;15074;50.940;5.282;2022-08-01T08:44:13;2.80;;;2.58;;
27666;SDS011;15074;50.940;5.282;2022-08-01T08:46:47;3.03;;;2.35;;
27666;SDS011;15074;50.940;5.282;2022-08-01T08:49:15;2.40;;;2.20;;
27666;SDS011;15074;50.940;5.282;2022-08-01T08:51:44;3.30;;;2.28;;
27666;SDS011;15074;50.940;5.282;2022-08-01T08:54:14;2.75;;;2.55;;
27666;SDS011;15074;50.940;5.282;2022-08-01T08:59:07;2.45;;;2.25;;
27666;SDS011;15074;50.940;5.282;2022-08-01T09:01:33;2.30;;;2.08;;
27666;SDS011;15074;50.940;5.282;2022-08-01T09:04:00;1.90;;;1.70;;
27666;SDS011;15074;50.940;5.282;2022-08-01T09:06:26;1.70;;;1.60;;
27666;SDS011;15074;50.940;5.282;2022-08-01T09:08:53;1.67;;;1.47;;
27666;SDS011;15074;50.940;5.282;2022-08-01T09:11:18;2.03;;;1.80;;
27666;SDS011;15074;50.940;5.282;2022-08-01T09:16:31;1.70;;;1.38;;
27666;SDS011;15074;50.940;5.282;2022-08-01T09:19:11;1.33;;;1.02;;
27666;SDS011;15074;50.940;5.282;2022-08-01T09:22:01;2.33;;;1.05;;
27666;SDS011;15074;50.940;5.282;2022-08-01T09:26:55;1.00;;;0.88;;
27666;SDS011;15074;50.940;5.282;2022-08-01T09:29:30;1.02;;;0.90;;
27666;SDS011;15074;50.940;5.282;2022-08-01T09:31:56;1.15;;;1.00;;
27666;SDS011;15074;50.940;5.282;2022-08-01T09:34:28;1.77;;;0.90;;
27666;SDS011;15074;50.940;5.282;2022-08-01T09:36:58;1.70;;;0.80;;
27666;SDS011;15074;50.940;5.282;2022-08-01T09:39:29;2.25;;;0.88;;
27666;SDS011;15074;50.940;5.282;2022-08-01T09:41:58;1.55;;;0.90;;
27666;SDS011;15074;50.940;5.282;2022-08-01T09:44:44;1.23;;;1.08;;
27666;SDS011;15074;50.940;5.282;2022-08-01T09:47:11;4.20;;;0.90;;
27666;SDS011;15074;50.940;5.282;2022-08-01T09:49:38;2.08;;;1.17;;
27666;SDS011;15074;50.940;5.282;2022-08-01T09:54:38;2.10;;;1.00;;
27666;SDS011;15074;50.940;5.282;2022-08-01T09:57:12;2.50;;;1.30;;
27666;SDS011;15074;50.940;5.282;2022-08-01T09:59:40;2.63;;;1.02;;
27666;SDS011;15074;50.940;5.282;2022-08-01T10:02:12;0.80;;;0.80;;
27666;SDS011;15074;50.940;5.282;2022-08-01T10:04:47;1.63;;;0.85;;
27666;SDS011;15074;50.940;5.282;2022-08-01T10:07:13;2.55;;;0.88;;
27666;SDS011;15074;50.940;5.282;2022-08-01T10:09:41;0.75;;;0.75;;
27666;SDS011;15074;50.940;5.282;2022-08-01T10:12:07;1.65;;;0.80;;
27666;SDS011;15074;50.940;5.282;2022-08-01T10:14:35;1.02;;;0.90;;
27666;SDS011;15074;50.940;5.282;2022-08-01T10:17:02;1.60;;;0.75;;
27666;SDS011;15074;50.940;5.282;2022-08-01T10:19:31;0.93;;;0.80;;
27666;SDS011;15074;50.940;5.282;2022-08-01T10:21:57;2.47;;;0.90;;
27666;SDS011;15074;50.940;5.282;2022-08-01T10:24:24;1.45;;;1.00;;
27666;SDS011;15074;50.940;5.282;2022-08-01T10:26:52;1.42;;;0.75;;
27666;SDS011;15074;50.940;5.282;2022-08-01T10:29:24;1.50;;;1.02;;
27666;SDS011;15074;50.940;5.282;2022-08-01T10:31:51;2.55;;;0.82;;
27666;SDS011;15074;50.940;5.282;2022-08-01T10:34:17;0.98;;;0.80;;
27666;SDS011;15074;50.940;5.282;2022-08-01T10:36:47;0.70;;;0.63;;
27666;SDS011;15074;50.940;5.282;2022-08-01T10:39:13;1.73;;;1.17;;
27666;SDS011;15074;50.940;5.282;2022-08-01T10:41:39;0.77;;;0.50;;
27666;SDS011;15074;50.940;5.282;2022-08-01T10:44:09;0.73;;;0.70;;
27666;SDS011;15074;50.940;5.282;2022-08-01T10:46:38;0.73;;;0.73;;
27666;SDS011;15074;50.940;5.282;2022-08-01T10:49:19;0.85;;;0.60;;
27666;SDS011;15074;50.940;5.282;2022-08-01T10:51:47;1.83;;;0.68;;
27666;SDS011;15074;50.940;5.282;2022-08-01T10:54:13;1.83;;;0.65;;
27666;SDS011;15074;50.940;5.282;2022-08-01T10:56:46;7.75;;;0.90;;
27666;SDS011;15074;50.940;5.282;2022-08-01T10:59:24;0.77;;;0.77;;
27666;SDS011;15074;50.940;5.282;2022-08-01T11:07:22;0.77;;;0.60;;
27666;SDS011;15074;50.940;5.282;2022-08-01T11:10:04;0.77;;;0.77;;
27666;SDS011;15074;50.940;5.282;2022-08-01T11:12:42;0.85;;;0.70;;
27666;SDS011;15074;50.940;5.282;2022-08-01T11:17:40;0.70;;;0.70;;
27666;SDS011;15074;50.940;5.282;2022-08-01T11:20:14;8.07;;;1.10;;
27666;SDS011;15074;50.940;5.282;2022-08-01T11:30:53;1.15;;;0.65;;
27666;SDS011;15074;50.940;5.282;2022-08-01T11:41:23;0.70;;;0.68;;
27666;SDS011;15074;50.940;5.282;2022-08-01T11:49:23;0.93;;;0.80;;
27666;SDS011;15074;50.940;5.282;2022-08-01T11:52:05;1.10;;;1.00;;
27666;SDS011;15074;50.940;5.282;2022-08-01T11:54:38;0.65;;;0.63;;
27666;SDS011;15074;50.940;5.282;2022-08-01T11:57:10;1.58;;;0.60;;
27666;SDS011;15074;50.940;5.282;2022-08-01T11:59:44;2.17;;;0.80;;
27666;SDS011;15074;50.940;5.282;2022-08-01T12:05:30;0.80;;;0.80;;
27666;SDS011;15074;50.940;5.282;2022-08-01T12:07:33;3.33;;;0.82;;
27666;SDS011;15074;50.940;5.282;2022-08-01T12:12:33;2.08;;;0.70;;
27666;SDS011;15074;50.940;5.282;2022-08-01T12:15:01;0.60;;;0.60;;
27666;SDS011;15074;50.940;5.282;2022-08-01T12:17:33;1.23;;;0.68;;
27666;SDS011;15074;50.940;5.282;2022-08-01T12:20:01;0.60;;;0.60;;
27666;SDS011;15074;50.940;5.282;2022-08-01T12:22:29;1.25;;;0.60;;
27666;SDS011;15074;50.940;5.282;2022-08-01T12:24:55;0.52;;;0.52;;
27666;SDS011;15074;50.940;5.282;2022-08-01T12:27:28;0.80;;;0.60;;
27666;SDS011;15074;50.940;5.282;2022-08-01T12:29:56;1.38;;;0.50;;
27666;SDS011;15074;50.940;5.282;2022-08-01T12:34:54;0.90;;;0.60;;
27666;SDS011;15074;50.940;5.282;2022-08-01T12:37:21;4.07;;;0.55;;
27666;SDS011;15074;50.940;5.282;2022-08-01T12:39:47;0.65;;;0.60;;
27666;SDS011;15074;50.940;5.282;2022-08-01T12:42:13;0.70;;;0.50;;
27666;SDS011;15074;50.940;5.282;2022-08-01T12:44:40;0.60;;;0.60;;
27666;SDS011;15074;50.940;5.282;2022-08-01T12:47:07;0.73;;;0.60;;
27666;SDS011;15074;50.940;5.282;2022-08-01T12:52:01;0.63;;;0.50;;
27666;SDS011;15074;50.940;5.282;2022-08-01T12:54:27;1.33;;;0.53;;
27666;SDS011;15074;50.940;5.282;2022-08-01T12:56:53;5.65;;;0.65;;
27666;SDS011;15074;50.940;5.282;2022-08-01T12:59:26;1.25;;;0.50;;
27666;SDS011;15074;50.940;5.282;2022-08-01T13:01:53;1.17;;;0.50;;
27666;SDS011;15074;50.940;5.282;2022-08-01T13:04:20;2.08;;;0.50;;
27666;SDS011;15074;50.940;5.282;2022-08-01T13:06:47;0.95;;;0.52;;
27666;SDS011;15074;50.940;5.282;2022-08-01T13:09:17;1.35;;;0.70;;
27666;SDS011;15074;50.940;5.282;2022-08-01T13:11:43;0.63;;;0.40;;
27666;SDS011;15074;50.940;5.282;2022-08-01T13:14:11;0.50;;;0.47;;
27666;SDS011;15074;50.940;5.282;2022-08-01T13:16:54;0.75;;;0.40;;
27666;SDS011;15074;50.940;5.282;2022-08-01T13:19:20;0.70;;;0.47;;
27666;SDS011;15074;50.940;5.282;2022-08-01T13:21:55;0.60;;;0.52;;
27666;SDS011;15074;50.940;5.282;2022-08-01T13:24:28;0.77;;;0.52;;
27666;SDS011;15074;50.940;5.282;2022-08-01T13:27:01;1.98;;;0.60;;
27666;SDS011;15074;50.940;5.282;2022-08-01T13:29:38;1.25;;;0.70;;
27666;SDS011;15074;50.940;5.282;2022-08-01T13:32:17;1.30;;;0.70;;
27666;SDS011;15074;50.940;5.282;2022-08-01T13:34:44;0.85;;;0.70;;
27666;SDS011;15074;50.940;5.282;2022-08-01T13:37:10;2.88;;;0.82;;
27666;SDS011;15074;50.940;5.282;2022-08-01T13:39:35;2.20;;;0.80;;
27666;SDS011;15074;50.940;5.282;2022-08-01T13:42:12;1.83;;;0.77;;
27666;SDS011;15074;50.940;5.282;2022-08-01T13:44:39;2.17;;;0.73;;
27666;SDS011;15074;50.940;5.282;2022-08-01T13:47:05;2.05;;;0.70;;
27666;SDS011;15074;50.940;5.282;2022-08-01T13:49:31;1.85;;;0.60;;
27666;SDS011;15074;50.940;5.282;2022-08-01T13:51:58;0.98;;;0.70;;
27666;SDS011;15074;50.940;5.282;2022-08-01T13:54:24;1.10;;;0.70;;
27666;SDS011;15074;50.940;5.282;2022-08-01T13:56:51;2.70;;;1.00;;
27666;SDS011;15074;50.940;5.282;2022-08-01T13:59:18;1.00;;;0.80;;
27666;SDS011;15074;50.940;5.282;2022-08-01T14:01:44;2.17;;;0.80;;
27666;SDS011;15074;50.940;5.282;2022-08-01T14:04:10;1.35;;;0.70;;
27666;SDS011;15074;50.940;5.282;2022-08-01T14:06:35;1.33;;;0.80;;
27666;SDS011;15074;50.940;5.282;2022-08-01T14:09:04;3.03;;;1.10;;
27666;SDS011;15074;50.940;5.282;2022-08-01T14:11:30;0.90;;;0.70;;
27666;SDS011;15074;50.940;5.282;2022-08-01T14:13:56;4.45;;;1.10;;
27666;SDS011;15074;50.940;5.282;2022-08-01T14:16:22;2.78;;;0.77;;
27666;SDS011;15074;50.940;5.282;2022-08-01T14:18:48;1.65;;;1.10;;
27666;SDS011;15074;50.940;5.282;2022-08-01T14:21:14;1.35;;;0.90;;
27666;SDS011;15074;50.940;5.282;2022-08-01T14:23:40;1.75;;;1.13;;
27666;SDS011;15074;50.940;5.282;2022-08-01T14:26:07;1.55;;;0.90;;
27666;SDS011;15074;50.940;5.282;2022-08-01T14:28:33;5.68;;;1.00;;
27666;SDS011;15074;50.940;5.282;2022-08-01T14:30:59;1.27;;;0.90;;
27666;SDS011;15074;50.940;5.282;2022-08-01T14:33:25;1.13;;;0.90;;
27666;SDS011;15074;50.940;5.282;2022-08-01T14:35:51;2.63;;;1.07;;
27666;SDS011;15074;50.940;5.282;2022-08-01T14:38:17;2.17;;;0.80;;
27666;SDS011;15074;50.940;5.282;2022-08-01T14:40:43;1.95;;;0.70;;
27666;SDS011;15074;50.940;5.282;2022-08-01T14:43:12;2.45;;;0.85;;
27666;SDS011;15074;50.940;5.282;2022-08-01T14:45:38;1.67;;;0.80;;
27666;SDS011;15074;50.940;5.282;2022-08-01T14:48:05;1.80;;;0.80;;
27666;SDS011;15074;50.940;5.282;2022-08-01T14:50:30;1.40;;;0.70;;
27666;SDS011;15074;50.940;5.282;2022-08-01T14:52:56;1.42;;;0.70;;
27666;SDS011;15074;50.940;5.282;2022-08-01T14:55:23;2.20;;;1.02;;
27666;SDS011;15074;50.940;5.282;2022-08-01T14:57:51;1.45;;;1.10;;
27666;SDS011;15074;50.940;5.282;2022-08-01T15:00:16;1.02;;;0.80;;
27666;SDS011;15074;50.940;5.282;2022-08-01T15:02:42;2.65;;;1.08;;
27666;SDS011;15074;50.940;5.282;2022-08-01T15:05:08;1.80;;;1.10;;
27666;SDS011;15074;50.940;5.282;2022-08-01T15:07:35;8.13;;;1.02;;
27666;SDS011;15074;50.940;5.282;2022-08-01T15:10:02;1.30;;;0.90;;
27666;SDS011;15074;50.940;5.282;2022-08-01T15:12:29;1.55;;;1.00;;
27666;SDS011;15074;50.940;5.282;2022-08-01T15:14:57;2.17;;;1.20;;
27666;SDS011;15074;50.940;5.282;2022-08-01T15:17:24;1.98;;;1.05;;
27666;SDS011;15074;50.940;5.282;2022-08-01T15:19:54;2.13;;;1.10;;
27666;SDS011;15074;50.940;5.282;2022-08-01T15:22:22;1.48;;;0.95;;
27666;SDS011;15074;50.940;5.282;2022-08-01T15:24:49;2.47;;;1.17;;
27666;SDS011;15074;50.940;5.282;2022-08-01T15:27:15;2.10;;;1.00;;
27666;SDS011;15074;50.940;5.282;2022-08-01T15:29:41;1.80;;;1.00;;
27666;SDS011;15074;50.940;5.282;2022-08-01T15:32:07;1.35;;;0.98;;
27666;SDS011;15074;50.940;5.282;2022-08-01T15:34:38;1.10;;;1.00;;
27666;SDS011;15074;50.940;5.282;2022-08-01T15:37:05;1.65;;;1.08;;
27666;SDS011;15074;50.940;5.282;2022-08-01T15:39:32;1.90;;;1.27;;
27666;SDS011;15074;50.940;5.282;2022-08-01T15:42:04;1.47;;;1.20;;
27666;SDS011;15074;50.940;5.282;2022-08-01T15:44:35;2.60;;;1.20;;
27666;SDS011;15074;50.940;5.282;2022-08-01T15:47:02;3.03;;;1.17;;
27666;SDS011;15074;50.940;5.282;2022-08-01T15:49:28;1.83;;;1.10;;
27666;SDS011;15074;50.940;5.282;2022-08-01T15:51:54;4.20;;;1.35;;
27666;SDS011;15074;50.940;5.282;2022-08-01T15:54:20;1.92;;;1.10;;
27666;SDS011;15074;50.940;5.282;2022-08-01T15:56:46;1.58;;;1.00;;
27666;SDS011;15074;50.940;5.282;2022-08-01T15:59:11;1.50;;;1.00;;
27666;SDS011;15074;50.940;5.282;2022-08-01T16:01:37;1.73;;;1.33;;
27666;SDS011;15074;50.940;5.282;2022-08-01T16:04:03;3.38;;;1.25;;